createdAt,value
2022-12-11T00:01:35.988Z,-0.20
2022-12-11T00:04:04.492Z,-0.19
2022-12-11T00:06:32.839Z,-0.16
2022-12-11T00:09:02.317Z,-0.25
2022-12-11T00:11:32.193Z,-0.32
2022-12-11T00:14:00.739Z,-0.35
2022-12-11T00:16:28.982Z,-0.34
2022-12-11T00:18:57.353Z,-0.30
2022-12-11T00:21:25.914Z,-0.59
2022-12-11T00:23:54.844Z,-0.41
2022-12-11T00:26:23.663Z,-0.36
2022-12-11T00:28:57.066Z,-0.35
2022-12-11T00:31:26.099Z,-0.21
2022-12-11T00:33:54.424Z,-0.35
2022-12-11T00:36:25.576Z,-0.59
2022-12-11T00:38:54.705Z,-0.76
2022-12-11T00:41:23.902Z,-0.43
2022-12-11T00:43:54.172Z,-0.35
2022-12-11T00:46:22.652Z,-0.20
2022-12-11T00:48:51.073Z,-0.24
2022-12-11T00:51:19.681Z,-0.34
2022-12-11T00:53:48.521Z,-0.55
2022-12-11T00:56:21.532Z,-0.40
2022-12-11T00:58:50.986Z,-0.33
2022-12-11T01:01:24.380Z,-0.26
2022-12-11T01:03:54.545Z,-0.39
2022-12-11T01:06:26.114Z,-0.32
2022-12-11T01:09:09.465Z,-0.30
2022-12-11T01:11:37.681Z,-0.28
2022-12-11T01:14:06.381Z,-0.42
2022-12-11T01:16:37.176Z,-0.12
2022-12-11T01:19:06.649Z,0.12
2022-12-11T01:21:34.913Z,0.12
2022-12-11T01:24:03.407Z,0.22
2022-12-11T01:26:32.062Z,0.39
2022-12-11T01:29:00.433Z,0.59
2022-12-11T01:31:28.982Z,0.18
2022-12-11T01:33:58.622Z,0.31
2022-12-11T01:36:27.164Z,0.40
2022-12-11T01:38:55.884Z,0.13
2022-12-11T01:41:24.491Z,-0.18
2022-12-11T01:44:02.594Z,-0.25
2022-12-11T01:46:33.407Z,0.04
2022-12-11T01:49:06.633Z,-0.05
2022-12-11T01:51:38.376Z,-0.21
2022-12-11T01:54:12.834Z,-0.07
2022-12-11T01:56:44.210Z,0.08
2022-12-11T01:59:15.807Z,-0.13
2022-12-11T02:01:51.464Z,-0.01
2022-12-11T02:04:22.221Z,-0.27
2022-12-11T02:06:53.046Z,-0.04
2022-12-11T02:09:27.414Z,0.07
2022-12-11T02:12:04.650Z,0.02
2022-12-11T02:14:44.682Z,-0.40
2022-12-11T02:17:17.100Z,-0.37
2022-12-11T02:20:05.558Z,-0.26
2022-12-11T02:22:55.541Z,-0.30
2022-12-11T02:25:31.565Z,-0.23
2022-12-11T02:28:20.499Z,-0.14
2022-12-11T02:30:57.922Z,0.04
2022-12-11T02:33:34.769Z,-0.03
2022-12-11T02:36:06.468Z,0.13
2022-12-11T02:38:41.558Z,-0.19
2022-12-11T02:41:12.832Z,0.00
2022-12-11T02:43:45.659Z,-0.19
2022-12-11T02:46:15.315Z,-0.19
2022-12-11T02:48:45.229Z,-0.20
2022-12-11T02:51:17.716Z,0.03
2022-12-11T02:53:47.890Z,-0.01
2022-12-11T02:56:25.565Z,-0.07
2022-12-11T02:59:00.907Z,0.09
2022-12-11T03:01:29.516Z,0.12
2022-12-11T03:03:59.362Z,0.09
2022-12-11T03:06:36.843Z,0.10
2022-12-11T03:09:06.670Z,0.16
2022-12-11T03:11:34.843Z,0.31
2022-12-11T03:14:05.109Z,0.48
2022-12-11T03:16:37.983Z,0.46
2022-12-11T03:19:17.160Z,0.47
2022-12-11T03:21:53.758Z,0.09
2022-12-11T03:24:27.535Z,0.27
2022-12-11T03:27:02.204Z,0.17
2022-12-11T03:29:38.942Z,0.15
2022-12-11T03:32:12.911Z,0.16
2022-12-11T03:34:48.072Z,0.05
2022-12-11T03:37:18.090Z,0.33
2022-12-11T03:39:52.490Z,0.14
2022-12-11T03:42:23.095Z,0.40
2022-12-11T03:44:55.980Z,0.59
2022-12-11T03:47:27.656Z,0.40
2022-12-11T03:49:59.694Z,0.36
2022-12-11T03:52:30.332Z,-0.11
2022-12-11T03:55:04.306Z,0.15
2022-12-11T03:57:36.351Z,0.30
2022-12-11T04:00:07.827Z,0.26
2022-12-11T04:02:40.571Z,0.47
2022-12-11T04:05:11.040Z,0.59
2022-12-11T04:07:39.566Z,0.67
2022-12-11T04:10:08.353Z,0.67
2022-12-11T04:12:36.841Z,0.61
2022-12-11T04:15:06.872Z,0.50
2022-12-11T04:17:54.981Z,0.45
2022-12-11T04:20:41.051Z,0.38
2022-12-11T04:23:32.076Z,0.27
2022-12-11T04:26:07.031Z,0.16
2022-12-11T04:28:36.019Z,0.34
2022-12-11T04:31:06.285Z,-0.12
2022-12-11T04:33:34.930Z,0.31
2022-12-11T04:36:04.423Z,-0.01
2022-12-11T04:38:32.786Z,0.21
2022-12-11T04:41:01.436Z,-0.12
2022-12-11T04:43:30.377Z,0.19
2022-12-11T04:46:08.984Z,0.44
2022-12-11T04:48:38.098Z,0.44
2022-12-11T04:51:07.884Z,0.65
2022-12-11T04:53:37.613Z,0.41
2022-12-11T04:56:08.282Z,0.22
2022-12-11T04:58:37.232Z,0.18
2022-12-11T05:01:10.252Z,0.15
2022-12-11T05:03:39.315Z,0.34
2022-12-11T05:06:09.573Z,0.54
2022-12-11T05:08:40.251Z,0.23
2022-12-11T05:11:11.250Z,0.51
2022-12-11T05:13:39.930Z,0.68
2022-12-11T05:16:13.528Z,0.48
2022-12-11T05:18:42.069Z,0.47
2022-12-11T05:21:15.853Z,0.01
2022-12-11T05:23:44.208Z,0.50
2022-12-11T05:26:16.018Z,0.81
2022-12-11T05:28:45.131Z,0.93
2022-12-11T05:31:19.970Z,0.68
2022-12-11T05:33:50.194Z,0.36
2022-12-11T05:36:21.966Z,0.41
2022-12-11T05:38:51.406Z,0.51
2022-12-11T05:41:22.092Z,0.30
2022-12-11T05:43:50.519Z,0.67
2022-12-11T05:46:23.465Z,0.81
2022-12-11T05:48:54.748Z,0.71
2022-12-11T05:51:24.152Z,0.88
2022-12-11T05:53:54.792Z,0.95
2022-12-11T05:56:27.243Z,1.07
2022-12-11T05:58:57.429Z,0.80
2022-12-11T06:01:31.271Z,0.59
2022-12-11T06:04:01.327Z,0.67
2022-12-11T06:06:30.034Z,0.22
2022-12-11T06:09:01.538Z,-0.11
2022-12-11T06:11:32.966Z,0.06
2022-12-11T06:14:03.729Z,0.05
2022-12-11T06:16:34.132Z,-0.51
2022-12-11T06:19:02.449Z,-0.48
2022-12-11T06:21:33.245Z,-0.51
2022-12-11T06:24:05.749Z,-0.45
2022-12-11T06:26:34.501Z,-0.43
2022-12-11T06:29:05.280Z,-0.51
2022-12-11T06:31:38.929Z,-0.49
2022-12-11T06:34:07.385Z,-0.28
2022-12-11T06:36:35.910Z,-0.48
2022-12-11T06:39:05.369Z,-0.33
2022-12-11T06:41:33.591Z,-0.12
2022-12-11T06:44:02.260Z,0.03
2022-12-11T06:46:30.744Z,-0.21
2022-12-11T06:49:00.591Z,-0.24
2022-12-11T06:51:28.903Z,-0.30
2022-12-11T06:53:58.309Z,-0.50
2022-12-11T06:56:27.295Z,-0.64
2022-12-11T06:58:57.114Z,-0.59
2022-12-11T07:01:27.713Z,-0.89
2022-12-11T07:03:57.162Z,-0.71
2022-12-11T07:06:29.037Z,-0.68
2022-12-11T07:08:58.163Z,-0.70
2022-12-11T07:11:26.402Z,-0.42
2022-12-11T07:13:54.785Z,-0.11
2022-12-11T07:16:23.148Z,-0.17
2022-12-11T07:18:52.849Z,0.12
2022-12-11T07:21:21.979Z,-0.18
2022-12-11T07:23:52.003Z,-0.31
2022-12-11T07:26:23.015Z,-0.16
2022-12-11T07:28:51.619Z,-0.22
2022-12-11T07:31:23.165Z,-0.47
2022-12-11T07:33:56.124Z,-0.47
2022-12-11T07:36:25.085Z,-0.27
2022-12-11T07:38:55.443Z,-0.13
2022-12-11T07:41:24.807Z,-0.09
2022-12-11T07:43:56.236Z,0.13
2022-12-11T07:46:27.928Z,0.20
2022-12-11T07:48:56.736Z,0.14
2022-12-11T07:51:32.341Z,-0.03
2022-12-11T07:54:04.757Z,-0.27
2022-12-11T07:56:34.592Z,0.02
2022-12-11T07:59:04.600Z,-0.07
2022-12-11T08:01:35.675Z,0.04
2022-12-11T08:04:06.028Z,0.07
2022-12-11T08:06:36.799Z,0.25
2022-12-11T08:09:09.820Z,0.46
2022-12-11T08:11:38.429Z,0.31
2022-12-11T08:14:08.964Z,0.18
2022-12-11T08:16:39.140Z,0.34
2022-12-11T08:19:08.582Z,0.46
2022-12-11T08:21:37.983Z,0.45
2022-12-11T08:24:08.987Z,0.42
2022-12-11T08:26:38.107Z,0.63
2022-12-11T08:29:06.459Z,0.83
2022-12-11T08:31:35.275Z,0.36
2022-12-11T08:34:04.576Z,0.19
2022-12-11T08:36:33.286Z,0.10
2022-12-11T08:39:03.472Z,0.41
2022-12-11T08:41:33.490Z,0.33
2022-12-11T08:44:01.953Z,0.36
2022-12-11T08:46:33.106Z,0.02
2022-12-11T08:49:01.848Z,0.25
2022-12-11T08:51:31.830Z,0.59
2022-12-11T08:54:02.211Z,0.51
2022-12-11T08:56:32.757Z,0.72
2022-12-11T08:59:01.810Z,0.88
2022-12-11T09:01:30.651Z,0.73
2022-12-11T09:03:59.196Z,0.61
2022-12-11T09:06:30.196Z,0.53
2022-12-11T09:09:00.914Z,0.67
2022-12-11T09:11:33.655Z,0.52
2022-12-11T09:14:07.366Z,0.42
2022-12-11T09:16:40.082Z,0.65
2022-12-11T09:19:13.809Z,0.86
2022-12-11T09:21:43.291Z,0.89
2022-12-11T09:24:13.807Z,0.77
2022-12-11T09:26:43.932Z,0.95
2022-12-11T09:29:13.131Z,0.75
2022-12-11T09:31:41.827Z,0.50
2022-12-11T09:34:13.543Z,0.61
2022-12-11T09:36:45.287Z,0.78
2022-12-11T09:39:15.609Z,0.75
2022-12-11T09:41:56.595Z,0.79
2022-12-11T09:44:38.359Z,0.77
2022-12-11T09:47:23.316Z,0.90
2022-12-11T09:49:58.692Z,0.68
2022-12-11T09:52:36.074Z,0.88
2022-12-11T09:55:17.371Z,0.81
2022-12-11T09:57:57.960Z,0.72
2022-12-11T10:00:31.754Z,0.78
2022-12-11T10:03:32.310Z,0.79
2022-12-11T10:06:08.961Z,0.70
2022-12-11T10:08:47.411Z,0.88
2022-12-11T10:11:39.947Z,0.75
2022-12-11T10:14:19.738Z,0.78
2022-12-11T10:16:53.046Z,0.95
2022-12-11T10:19:27.676Z,0.87
2022-12-11T10:21:57.744Z,0.68
2022-12-11T10:25:09.571Z,1.02
2022-12-11T10:27:32.100Z,1.14
2022-12-11T10:30:15.878Z,1.24
2022-12-11T10:32:53.565Z,1.36
2022-12-11T10:35:34.107Z,1.16
2022-12-11T10:38:14.584Z,1.58
2022-12-11T10:40:47.225Z,1.10
2022-12-11T10:43:15.332Z,1.38
2022-12-11T10:45:54.056Z,1.55
2022-12-11T10:48:23.605Z,1.88
2022-12-11T10:51:02.310Z,1.98
2022-12-11T10:53:31.401Z,1.80
2022-12-11T10:56:01.828Z,1.59
2022-12-11T10:58:34.369Z,1.63
2022-12-11T11:01:24.330Z,1.75
2022-12-11T11:03:59.773Z,1.85
2022-12-11T11:06:28.751Z,1.75
2022-12-11T11:09:00.081Z,2.01
2022-12-11T11:11:34.264Z,2.00
2022-12-11T11:14:11.806Z,1.75
2022-12-11T11:16:44.872Z,1.82
2022-12-11T11:19:24.667Z,1.95
2022-12-11T11:21:56.515Z,1.17
2022-12-11T11:24:33.104Z,1.54
2022-12-11T11:27:13.309Z,1.65
2022-12-11T11:29:45.057Z,1.71
2022-12-11T11:32:23.728Z,1.32
2022-12-11T11:34:52.024Z,1.33
2022-12-11T11:37:31.592Z,1.54
2022-12-11T11:40:09.482Z,1.31
2022-12-11T11:42:48.947Z,1.62
2022-12-11T11:45:24.546Z,1.69
2022-12-11T11:48:10.921Z,1.82
2022-12-11T11:50:46.994Z,1.38
2022-12-11T11:53:23.367Z,1.56
2022-12-11T11:56:04.074Z,1.18
2022-12-11T11:58:42.891Z,1.44
2022-12-11T12:01:17.344Z,1.38
2022-12-11T12:03:48.850Z,1.37
2022-12-11T12:06:32.466Z,1.32
2022-12-11T12:09:16.173Z,1.34
2022-12-11T12:11:53.495Z,1.55
2022-12-11T12:14:51.823Z,1.71
2022-12-11T12:17:27.855Z,1.75
2022-12-11T12:20:20.668Z,1.70
2022-12-11T12:23:26.046Z,1.51
2022-12-11T12:26:04.252Z,1.47
2022-12-11T12:28:45.110Z,1.70
2022-12-11T12:31:44.019Z,1.79
2022-12-11T12:34:26.168Z,1.90
2022-12-11T12:37:06.762Z,2.05
2022-12-11T12:39:46.619Z,2.47
2022-12-11T12:42:31.469Z,2.57
2022-12-11T12:45:04.762Z,2.65
2022-12-11T12:47:36.335Z,2.69
2022-12-11T12:50:11.564Z,3.06
2022-12-11T12:52:42.726Z,2.96
2022-12-11T12:55:24.121Z,2.73
2022-12-11T12:57:57.434Z,2.92
2022-12-11T13:00:34.396Z,2.94
2022-12-11T13:03:16.546Z,2.85
2022-12-11T13:05:56.031Z,2.91
2022-12-11T13:08:30.078Z,2.85
2022-12-11T13:11:06.355Z,3.08
2022-12-11T13:13:39.369Z,3.30
2022-12-11T13:16:25.465Z,2.83
2022-12-11T13:18:54.612Z,2.50
2022-12-11T13:21:32.659Z,2.38
2022-12-11T13:24:26.031Z,2.53
2022-12-11T13:26:54.901Z,2.16
2022-12-11T13:29:32.201Z,2.10
2022-12-11T13:32:03.568Z,2.22
2022-12-11T13:34:36.303Z,1.83
2022-12-11T13:37:05.422Z,1.45
2022-12-11T13:39:38.644Z,1.54
2022-12-11T13:42:17.624Z,1.39
2022-12-11T13:44:50.320Z,1.65
2022-12-11T13:47:19.935Z,1.41
2022-12-11T13:49:56.844Z,1.39
2022-12-11T13:52:28.589Z,1.48
2022-12-11T13:55:01.257Z,1.36
2022-12-11T13:57:29.477Z,1.56
2022-12-11T13:59:59.455Z,1.33
2022-12-11T14:02:31.193Z,1.48
2022-12-11T14:05:03.141Z,1.34
2022-12-11T14:07:34.614Z,1.39
2022-12-11T14:10:10.686Z,1.53
2022-12-11T14:12:39.355Z,1.54
2022-12-11T14:15:14.318Z,1.43
2022-12-11T14:17:50.018Z,1.30
2022-12-11T14:20:23.940Z,1.52
2022-12-11T14:22:52.733Z,1.58
2022-12-11T14:25:26.206Z,1.70
2022-12-11T14:27:57.753Z,1.68
2022-12-11T14:30:28.814Z,1.95
2022-12-11T14:33:00.243Z,1.94
2022-12-11T14:35:38.725Z,2.07
2022-12-11T14:38:15.993Z,1.97
2022-12-11T14:40:51.083Z,2.00
2022-12-11T14:43:25.313Z,1.72
2022-12-11T14:46:00.470Z,1.85
2022-12-11T14:48:38.429Z,1.95
2022-12-11T14:51:13.378Z,1.90
2022-12-11T14:53:45.883Z,1.95
2022-12-11T14:56:22.229Z,1.83
2022-12-11T14:58:56.388Z,1.90
2022-12-11T15:01:28.171Z,1.64
2022-12-11T15:04:20.747Z,1.35
2022-12-11T15:06:51.570Z,1.58
2022-12-11T15:09:22.501Z,1.58
2022-12-11T15:11:54.346Z,1.71
2022-12-11T15:14:23.879Z,1.79
2022-12-11T15:16:54.982Z,1.81
2022-12-11T15:19:29.737Z,1.94
2022-12-11T15:22:04.842Z,1.96
2022-12-11T15:24:41.457Z,2.02
2022-12-11T15:27:26.906Z,2.01
2022-12-11T15:29:55.257Z,2.01
2022-12-11T15:32:25.104Z,2.06
2022-12-11T15:34:56.069Z,2.03
2022-12-11T15:37:26.876Z,2.01
2022-12-11T15:39:57.608Z,2.10
2022-12-11T15:42:31.474Z,1.92
2022-12-11T15:45:01.127Z,1.87
2022-12-11T15:47:32.401Z,1.67
2022-12-11T15:50:04.437Z,1.73
2022-12-11T15:52:34.596Z,1.76
2022-12-11T15:55:03.112Z,1.67
2022-12-11T15:57:33.135Z,1.57
2022-12-11T16:00:01.774Z,1.39
2022-12-11T16:02:33.503Z,1.28
2022-12-11T16:05:01.768Z,1.24
2022-12-11T16:07:30.222Z,1.10
2022-12-11T16:09:58.984Z,0.94
2022-12-11T16:12:27.269Z,0.97
2022-12-11T16:14:56.986Z,1.08
2022-12-11T16:17:25.766Z,1.05
2022-12-11T16:19:55.340Z,0.88
2022-12-11T16:22:23.943Z,0.84
2022-12-11T16:24:55.788Z,1.02
2022-12-11T16:27:24.829Z,0.97
2022-12-11T16:29:53.522Z,0.72
2022-12-11T16:32:23.834Z,0.70
2022-12-11T16:34:52.454Z,0.83
2022-12-11T16:37:20.685Z,0.88
2022-12-11T16:39:49.262Z,0.82
2022-12-11T16:42:17.721Z,0.79
2022-12-11T16:44:46.172Z,0.75
2022-12-11T16:47:14.499Z,0.64
2022-12-11T16:49:44.251Z,0.65
2022-12-11T16:52:15.330Z,0.67
2022-12-11T16:54:47.494Z,0.68
2022-12-11T16:57:16.177Z,0.69
2022-12-11T16:59:44.568Z,0.62
2022-12-11T17:02:13.133Z,0.61
2022-12-11T17:04:46.119Z,0.33
2022-12-11T17:07:17.124Z,0.17
2022-12-11T17:09:45.668Z,0.25
2022-12-11T17:12:14.042Z,0.34
2022-12-11T17:14:42.388Z,0.40
2022-12-11T17:17:10.623Z,0.46
2022-12-11T17:19:38.882Z,0.44
2022-12-11T17:22:09.333Z,0.34
2022-12-11T17:24:38.080Z,0.35
2022-12-11T17:27:06.698Z,0.42
2022-12-11T17:29:34.917Z,0.44
2022-12-11T17:32:03.697Z,0.33
2022-12-11T17:34:37.831Z,-0.05
2022-12-11T17:37:08.361Z,0.05
2022-12-11T17:39:37.669Z,0.15
2022-12-11T17:42:06.347Z,0.16
2022-12-11T17:44:34.715Z,0.15
2022-12-11T17:47:09.171Z,0.05
2022-12-11T17:49:39.565Z,0.05
2022-12-11T17:52:09.531Z,-0.13
2022-12-11T17:54:39.407Z,-0.21
2022-12-11T17:57:07.658Z,-0.13
2022-12-11T17:59:35.937Z,-0.13
2022-12-11T18:02:04.497Z,-0.56
2022-12-11T18:04:32.916Z,-0.64
2022-12-11T18:07:01.552Z,-0.55
2022-12-11T18:09:31.712Z,-0.49
2022-12-11T18:12:01.541Z,-0.41
2022-12-11T18:14:29.962Z,-0.37
2022-12-11T18:16:58.323Z,-0.44
2022-12-11T18:19:27.063Z,-0.41
2022-12-11T18:21:56.722Z,-0.41
2022-12-11T18:24:25.820Z,-0.38
2022-12-11T18:26:56.438Z,-0.47
2022-12-11T18:29:24.837Z,-0.41
2022-12-11T18:31:53.444Z,-0.34
2022-12-11T18:34:21.805Z,-0.32
2022-12-11T18:36:50.132Z,-0.26
2022-12-11T18:39:18.427Z,-0.47
2022-12-11T18:41:58.406Z,-0.50
2022-12-11T18:44:33.579Z,-0.47
2022-12-11T18:47:02.100Z,-0.63
2022-12-11T18:49:30.969Z,-0.77
2022-12-11T18:51:59.349Z,-0.58
2022-12-11T18:54:27.693Z,-0.51
2022-12-11T18:56:56.436Z,-0.59
2022-12-11T18:59:25.224Z,-0.83
2022-12-11T19:01:55.500Z,-0.70
2022-12-11T19:04:24.079Z,-0.51
2022-12-11T19:06:52.777Z,-0.46
2022-12-11T19:09:21.862Z,-0.44
2022-12-11T19:11:50.488Z,-0.39
2022-12-11T19:14:18.951Z,-0.49
2022-12-11T19:16:47.568Z,-0.73
2022-12-11T19:19:21.954Z,-0.88
2022-12-11T19:21:51.639Z,-0.67
2022-12-11T19:24:23.498Z,-0.67
2022-12-11T19:26:52.843Z,-0.63
2022-12-11T19:29:25.069Z,-0.49
2022-12-11T19:31:55.713Z,-0.43
2022-12-11T19:34:26.763Z,-0.49
2022-12-11T19:36:56.405Z,-0.38
2022-12-11T19:39:24.938Z,-0.25
2022-12-11T19:41:54.562Z,-0.25
2022-12-11T19:44:22.857Z,-0.15
2022-12-11T19:46:51.209Z,-0.09
2022-12-11T19:49:19.869Z,-0.16
2022-12-11T19:51:49.702Z,-0.17
2022-12-11T19:54:19.603Z,-0.35
2022-12-11T19:56:48.205Z,-0.17
2022-12-11T19:59:18.066Z,-0.13
2022-12-11T20:01:48.016Z,-0.22
2022-12-11T20:04:18.560Z,-0.40
2022-12-11T20:06:48.986Z,-0.22
2022-12-11T20:09:18.384Z,-0.18
2022-12-11T20:11:48.715Z,-0.33
2022-12-11T20:14:23.997Z,-0.29
2022-12-11T20:17:12.805Z,-0.40
2022-12-11T20:19:42.147Z,-0.42
2022-12-11T20:22:12.296Z,-0.51
2022-12-11T20:24:40.788Z,-0.61
2022-12-11T20:27:12.354Z,-0.45
2022-12-11T20:29:40.806Z,-0.47
2022-12-11T20:32:11.472Z,-0.39
2022-12-11T20:34:40.281Z,-0.67
2022-12-11T20:37:09.045Z,-0.56
2022-12-11T20:39:39.655Z,-0.66
2022-12-11T20:42:11.695Z,-0.67
2022-12-11T20:44:44.164Z,-0.54
2022-12-11T20:47:19.558Z,-0.59
2022-12-11T20:49:48.686Z,-1.02
2022-12-11T20:52:18.037Z,-1.07
2022-12-11T20:54:47.916Z,-0.85
2022-12-11T20:57:16.604Z,-0.73
2022-12-11T20:59:46.466Z,-0.72
2022-12-11T21:02:15.669Z,-0.62
2022-12-11T21:04:45.270Z,-0.65
2022-12-11T21:07:13.994Z,-0.77
2022-12-11T21:09:42.463Z,-0.66
2022-12-11T21:12:12.451Z,-0.67
2022-12-11T21:14:40.843Z,-0.58
2022-12-11T21:17:10.013Z,-0.65
2022-12-11T21:19:40.352Z,-0.58
2022-12-11T21:22:08.816Z,-0.57
2022-12-11T21:24:37.142Z,-0.51
2022-12-11T21:27:05.908Z,-0.60
2022-12-11T21:29:36.742Z,-0.59
2022-12-11T21:32:06.172Z,-0.65
2022-12-11T21:34:34.646Z,-0.64
2022-12-11T21:37:04.933Z,-0.76
2022-12-11T21:39:39.196Z,-0.90
2022-12-11T21:42:08.100Z,-0.78
2022-12-11T21:45:31.516Z,-0.70
2022-12-11T21:47:27.847Z,-0.76
2022-12-11T21:49:56.568Z,-0.74
2022-12-11T21:52:25.038Z,-0.68
2022-12-11T21:54:53.560Z,-0.58
2022-12-11T21:57:26.319Z,-0.56
2022-12-11T21:59:56.911Z,-0.55
2022-12-11T22:02:25.380Z,-0.46
2022-12-11T22:04:53.955Z,-0.47
2022-12-11T22:07:23.599Z,-0.54
2022-12-11T22:09:52.400Z,-0.51
2022-12-11T22:12:25.406Z,-0.46
2022-12-11T22:14:53.878Z,-0.53
2022-12-11T22:17:24.217Z,-0.57
2022-12-11T22:19:53.800Z,-0.59
2022-12-11T22:22:22.385Z,-0.59
2022-12-11T22:24:51.012Z,-0.68
2022-12-11T22:27:23.593Z,-0.72
2022-12-11T22:29:52.276Z,-0.60
2022-12-11T22:32:20.520Z,-0.74
2022-12-11T22:34:50.091Z,-0.77
2022-12-11T22:37:18.431Z,-0.59
2022-12-11T22:39:47.074Z,-0.51
2022-12-11T22:42:15.627Z,-0.48
2022-12-11T22:44:47.845Z,-0.47
2022-12-11T22:47:17.147Z,-0.43
2022-12-11T22:49:45.751Z,-0.42
2022-12-11T22:52:15.620Z,-0.58
2022-12-11T22:54:44.638Z,-0.51
2022-12-11T22:57:14.497Z,-0.53
2022-12-11T22:59:43.466Z,-0.60
2022-12-11T23:02:11.849Z,-0.64
2022-12-11T23:04:40.248Z,-0.64
2022-12-11T23:07:08.904Z,-0.54
2022-12-11T23:09:38.766Z,-0.47
2022-12-11T23:12:08.080Z,-0.51
2022-12-11T23:14:36.763Z,-0.40
2022-12-11T23:17:05.442Z,-0.46
2022-12-11T23:19:35.722Z,-0.48
2022-12-11T23:22:05.380Z,-0.57
2022-12-11T23:24:33.933Z,-0.62
2022-12-11T23:27:04.151Z,-0.64
2022-12-11T23:29:33.167Z,-0.58
2022-12-11T23:32:01.735Z,-0.57
2022-12-11T23:34:30.679Z,-0.69
2022-12-11T23:36:59.207Z,-0.70
2022-12-11T23:39:27.472Z,-0.73
2022-12-11T23:41:56.155Z,-0.74
2022-12-11T23:44:25.826Z,-0.73
2022-12-11T23:46:54.339Z,-0.77
2022-12-11T23:49:23.003Z,-0.83
2022-12-11T23:51:51.482Z,-0.92
2022-12-11T23:54:20.084Z,-0.88
2022-12-11T23:56:48.659Z,-0.83
2022-12-11T23:59:17.093Z,-0.87
